sensor_id;sensor_type;location;lat;lon;timestamp;pressure;altitude;pressure_sealevel;temperature;humidity
15405;BME280;7801;48.124;11.590;2022-10-16T00:01:28;95486.28;;;14.44;100.00
15405;BME280;7801;48.124;11.590;2022-10-16T00:03:56;95482.94;;;14.39;100.00
15405;BME280;7801;48.124;11.590;2022-10-16T00:06:26;95484.84;;;14.30;100.00
15405;BME280;7801;48.124;11.590;2022-10-16T00:09:02;95484.50;;;14.40;100.00
15405;BME280;7801;48.124;11.590;2022-10-16T00:11:31;95485.97;;;14.46;100.00
15405;BME280;7801;48.124;11.590;2022-10-16T00:14:06;95485.50;;;14.44;100.00
15405;BME280;7801;48.124;11.590;2022-10-16T00:16:37;95484.03;;;14.38;100.00
15405;BME280;7801;48.124;11.590;2022-10-16T00:19:03;95489.22;;;14.26;100.00
15405;BME280;7801;48.124;11.590;2022-10-16T00:21:30;95497.81;;;14.14;100.00
15405;BME280;7801;48.124;11.590;2022-10-16T00:24:08;95494.06;;;14.15;100.00
15405;BME280;7801;48.124;11.590;2022-10-16T00:26:42;95494.06;;;14.15;100.00
15405;BME280;7801;48.124;11.590;2022-10-16T00:29:09;95485.75;;;14.08;100.00
15405;BME280;7801;48.124;11.590;2022-10-16T00:31:35;95487.78;;;14.11;100.00
15405;BME280;7801;48.124;11.590;2022-10-16T00:34:02;95486.84;;;14.07;100.00
15405;BME280;7801;48.124;11.590;2022-10-16T00:36:30;95497.50;;;14.16;100.00
15405;BME280;7801;48.124;11.590;2022-10-16T00:38:59;95495.75;;;14.02;100.00
15405;BME280;7801;48.124;11.590;2022-10-16T00:41:28;95490.59;;;14.06;100.00
15405;BME280;7801;48.124;11.590;2022-10-16T00:46:52;95489.66;;;14.19;100.00
15405;BME280;7801;48.124;11.590;2022-10-16T00:49:18;95490.94;;;14.13;100.00
15405;BME280;7801;48.124;11.590;2022-10-16T00:51:50;95487.94;;;14.15;100.00
15405;BME280;7801;48.124;11.590;2022-10-16T00:54:22;95495.94;;;14.06;100.00
15405;BME280;7801;48.124;11.590;2022-10-16T00:56:50;95489.97;;;14.09;100.00
15405;BME280;7801;48.124;11.590;2022-10-16T00:59:26;95488.22;;;14.04;100.00
15405;BME280;7801;48.124;11.590;2022-10-16T01:01:54;95487.13;;;14.14;100.00
15405;BME280;7801;48.124;11.590;2022-10-16T01:04:22;95489.19;;;14.08;100.00
15405;BME280;7801;48.124;11.590;2022-10-16T01:15:23;95503.63;;;14.07;100.00
15405;BME280;7801;48.124;11.590;2022-10-16T01:21:06;95507.56;;;14.10;99.93
15405;BME280;7801;48.124;11.590;2022-10-16T01:26:44;95524.31;;;14.02;99.83
15405;BME280;7801;48.124;11.590;2022-10-16T01:29:25;95515.09;;;14.08;99.86
15405;BME280;7801;48.124;11.590;2022-10-16T01:32:00;95515.69;;;14.14;99.40
15405;BME280;7801;48.124;11.590;2022-10-16T01:34:44;95513.03;;;14.14;99.02
15405;BME280;7801;48.124;11.590;2022-10-16T01:37:16;95510.38;;;14.14;99.31
15405;BME280;7801;48.124;11.590;2022-10-16T01:39:50;95510.06;;;14.15;98.87
15405;BME280;7801;48.124;11.590;2022-10-16T01:42:24;95511.31;;;14.09;99.15
15405;BME280;7801;48.124;11.590;2022-10-16T01:44:56;95515.41;;;14.15;98.89
15405;BME280;7801;48.124;11.590;2022-10-16T01:47:25;95512.28;;;14.13;98.82
15405;BME280;7801;48.124;11.590;2022-10-16T01:49:55;95506.59;;;14.06;98.94
15405;BME280;7801;48.124;11.590;2022-10-16T01:52:25;95506.25;;;13.99;99.35
15405;BME280;7801;48.124;11.590;2022-10-16T01:55:05;95508.44;;;13.97;99.69
15405;BME280;7801;48.124;11.590;2022-10-16T01:57:40;95500.44;;;13.88;99.98
15405;BME280;7801;48.124;11.590;2022-10-16T02:00:12;95504.81;;;13.93;99.62
15405;BME280;7801;48.124;11.590;2022-10-16T02:02:42;95504.19;;;13.87;99.52
15405;BME280;7801;48.124;11.590;2022-10-16T02:05:22;95497.16;;;13.91;99.61
15405;BME280;7801;48.124;11.590;2022-10-16T02:07:49;95488.50;;;13.86;99.71
15405;BME280;7801;48.124;11.590;2022-10-16T02:10:18;95487.53;;;13.82;99.93
15405;BME280;7801;48.124;11.590;2022-10-16T02:12:51;95489.87;;;13.74;100.00
15405;BME280;7801;48.124;11.590;2022-10-16T02:15:20;95489.37;;;13.72;100.00
15405;BME280;7801;48.124;11.590;2022-10-16T02:17:47;95488.16;;;13.79;100.00
15405;BME280;7801;48.124;11.590;2022-10-16T02:20:12;95485.19;;;13.71;100.00
15405;BME280;7801;48.124;11.590;2022-10-16T02:22:46;95481.72;;;13.80;99.77
15405;BME280;7801;48.124;11.590;2022-10-16T02:25:21;95494.59;;;13.77;99.94
15405;BME280;7801;48.124;11.590;2022-10-16T02:28:11;95493.66;;;13.82;99.86
15405;BME280;7801;48.124;11.590;2022-10-16T02:30:50;95495.06;;;13.80;99.71
15405;BME280;7801;48.124;11.590;2022-10-16T02:33:24;95500.53;;;13.74;99.87
15405;BME280;7801;48.124;11.590;2022-10-16T02:35:52;95490.03;;;13.69;99.92
15405;BME280;7801;48.124;11.590;2022-10-16T02:38:22;95504.28;;;13.73;99.92
15405;BME280;7801;48.124;11.590;2022-10-16T02:40:50;95496.94;;;13.70;99.88
15405;BME280;7801;48.124;11.590;2022-10-16T02:43:17;95499.91;;;13.77;99.59
15405;BME280;7801;48.124;11.590;2022-10-16T02:45:43;95509.34;;;13.84;99.30
15405;BME280;7801;48.124;11.590;2022-10-16T02:48:13;95512.16;;;13.79;99.04
15405;BME280;7801;48.124;11.590;2022-10-16T02:50:39;95505.88;;;13.74;99.08
15405;BME280;7801;48.124;11.590;2022-10-16T02:53:05;95511.53;;;13.82;99.15
15405;BME280;7801;48.124;11.590;2022-10-16T02:55:34;95512.63;;;13.81;99.30
15405;BME280;7801;48.124;11.590;2022-10-16T02:58:00;95513.84;;;13.66;99.53
15405;BME280;7801;48.124;11.590;2022-10-16T03:00:27;95520.56;;;13.63;99.89
15405;BME280;7801;48.124;11.590;2022-10-16T03:02:54;95521.13;;;13.83;99.14
15405;BME280;7801;48.124;11.590;2022-10-16T03:05:20;95518.72;;;13.72;99.38
15405;BME280;7801;48.124;11.590;2022-10-16T03:07:49;95514.16;;;13.64;99.82
15405;BME280;7801;48.124;11.590;2022-10-16T03:10:19;95517.91;;;13.63;99.85
15405;BME280;7801;48.124;11.590;2022-10-16T03:12:48;95514.28;;;13.59;99.60
15405;BME280;7801;48.124;11.590;2022-10-16T03:15:15;95507.25;;;13.63;99.86
15405;BME280;7801;48.124;11.590;2022-10-16T03:17:43;95513.00;;;13.48;99.90
15405;BME280;7801;48.124;11.590;2022-10-16T03:20:09;95504.72;;;13.58;99.89
15405;BME280;7801;48.124;11.590;2022-10-16T03:22:37;95512.75;;;13.67;99.34
15405;BME280;7801;48.124;11.590;2022-10-16T03:25:04;95512.56;;;13.63;99.07
15405;BME280;7801;48.124;11.590;2022-10-16T03:27:30;95509.25;;;13.58;99.31
15405;BME280;7801;48.124;11.590;2022-10-16T03:29:56;95515.97;;;13.55;99.61
15405;BME280;7801;48.124;11.590;2022-10-16T03:32:22;95509.91;;;13.63;99.40
15405;BME280;7801;48.124;11.590;2022-10-16T03:34:51;95526.34;;;13.57;99.18
15405;BME280;7801;48.124;11.590;2022-10-16T03:37:19;95513.31;;;13.55;99.32
15405;BME280;7801;48.124;11.590;2022-10-16T03:39:45;95519.34;;;13.38;100.00
15405;BME280;7801;48.124;11.590;2022-10-16T03:42:12;95520.81;;;13.45;100.00
15405;BME280;7801;48.124;11.590;2022-10-16T03:44:38;95515.53;;;13.31;100.00
15405;BME280;7801;48.124;11.590;2022-10-16T03:47:04;95526.44;;;13.43;100.00
15405;BME280;7801;48.124;11.590;2022-10-16T03:49:32;95521.91;;;13.52;99.82
15405;BME280;7801;48.124;11.590;2022-10-16T03:51:59;95540.13;;;13.50;99.87
15405;BME280;7801;48.124;11.590;2022-10-16T03:54:25;95539.66;;;13.57;99.33
15405;BME280;7801;48.124;11.590;2022-10-16T03:56:53;95534.50;;;13.60;99.52
15405;BME280;7801;48.124;11.590;2022-10-16T03:59:20;95530.06;;;13.47;99.78
15405;BME280;7801;48.124;11.590;2022-10-16T04:01:48;95529.78;;;13.57;99.67
15405;BME280;7801;48.124;11.590;2022-10-16T04:04:13;95517.53;;;13.48;99.92
15405;BME280;7801;48.124;11.590;2022-10-16T04:06:40;95526.16;;;13.53;99.52
15405;BME280;7801;48.124;11.590;2022-10-16T04:09:09;95523.78;;;13.52;99.24
15405;BME280;7801;48.124;11.590;2022-10-16T04:11:37;95527.00;;;13.62;99.15
15405;BME280;7801;48.124;11.590;2022-10-16T04:14:05;95519.59;;;13.59;99.41
15405;BME280;7801;48.124;11.590;2022-10-16T04:16:33;95523.53;;;13.62;99.40
15405;BME280;7801;48.124;11.590;2022-10-16T04:19:03;95517.91;;;13.63;99.25
15405;BME280;7801;48.124;11.590;2022-10-16T04:21:30;95519.97;;;13.66;99.07
15405;BME280;7801;48.124;11.590;2022-10-16T04:24:00;95519.06;;;13.80;98.59
15405;BME280;7801;48.124;11.590;2022-10-16T04:26:26;95514.22;;;13.82;98.23
15405;BME280;7801;48.124;11.590;2022-10-16T04:28:54;95527.50;;;13.73;98.39
15405;BME280;7801;48.124;11.590;2022-10-16T04:31:33;95531.72;;;13.65;98.70
15405;BME280;7801;48.124;11.590;2022-10-16T04:34:00;95520.94;;;13.70;98.60
15405;BME280;7801;48.124;11.590;2022-10-16T04:36:27;95530.69;;;13.53;99.07
15405;BME280;7801;48.124;11.590;2022-10-16T04:38:53;95535.97;;;13.66;98.99
15405;BME280;7801;48.124;11.590;2022-10-16T04:41:20;95532.03;;;13.64;98.90
15405;BME280;7801;48.124;11.590;2022-10-16T04:43:47;95531.19;;;13.55;99.02
15405;BME280;7801;48.124;11.590;2022-10-16T04:46:13;95525.22;;;13.49;98.94
15405;BME280;7801;48.124;11.590;2022-10-16T04:48:39;95530.44;;;13.63;98.72
15405;BME280;7801;48.124;11.590;2022-10-16T04:51:06;95533.13;;;13.63;98.36
15405;BME280;7801;48.124;11.590;2022-10-16T04:53:32;95534.78;;;13.50;98.61
15405;BME280;7801;48.124;11.590;2022-10-16T04:55:59;95541.47;;;13.39;99.44
15405;BME280;7801;48.124;11.590;2022-10-16T04:58:26;95536.66;;;13.50;99.40
15405;BME280;7801;48.124;11.590;2022-10-16T05:00:53;95526.87;;;13.67;98.60
15405;BME280;7801;48.124;11.590;2022-10-16T05:03:18;95523.84;;;13.60;98.79
15405;BME280;7801;48.124;11.590;2022-10-16T05:05:46;95516.69;;;13.69;98.56
15405;BME280;7801;48.124;11.590;2022-10-16T05:08:23;95512.22;;;13.56;99.13
15405;BME280;7801;48.124;11.590;2022-10-16T05:10:49;95530.09;;;13.56;99.25
15405;BME280;7801;48.124;11.590;2022-10-16T05:13:14;95538.75;;;13.61;99.01
15405;BME280;7801;48.124;11.590;2022-10-16T05:15:41;95537.72;;;13.71;98.61
15405;BME280;7801;48.124;11.590;2022-10-16T05:18:08;95528.44;;;13.68;98.78
15405;BME280;7801;48.124;11.590;2022-10-16T05:20:35;95525.78;;;13.77;98.45
15405;BME280;7801;48.124;11.590;2022-10-16T05:23:00;95515.66;;;13.88;97.58
15405;BME280;7801;48.124;11.590;2022-10-16T05:25:27;95514.88;;;13.87;97.54
15405;BME280;7801;48.124;11.590;2022-10-16T05:27:55;95518.63;;;13.86;97.79
15405;BME280;7801;48.124;11.590;2022-10-16T05:30:22;95525.53;;;13.87;97.48
15405;BME280;7801;48.124;11.590;2022-10-16T05:32:48;95529.31;;;13.95;97.25
15405;BME280;7801;48.124;11.590;2022-10-16T05:35:15;95532.09;;;13.81;97.64
15405;BME280;7801;48.124;11.590;2022-10-16T05:37:40;95543.69;;;13.76;98.18
15405;BME280;7801;48.124;11.590;2022-10-16T05:40:09;95539.59;;;13.79;98.21
15405;BME280;7801;48.124;11.590;2022-10-16T05:42:39;95537.06;;;13.74;98.42
15405;BME280;7801;48.124;11.590;2022-10-16T05:45:09;95544.13;;;13.70;98.51
15405;BME280;7801;48.124;11.590;2022-10-16T05:47:35;95553.59;;;13.85;98.05
15405;BME280;7801;48.124;11.590;2022-10-16T05:50:01;95552.22;;;13.96;97.32
15405;BME280;7801;48.124;11.590;2022-10-16T05:52:27;95566.63;;;13.86;97.89
15405;BME280;7801;48.124;11.590;2022-10-16T05:54:54;95555.19;;;13.86;98.32
15405;BME280;7801;48.124;11.590;2022-10-16T05:57:19;95558.81;;;13.98;97.77
15405;BME280;7801;48.124;11.590;2022-10-16T05:59:46;95565.91;;;14.03;97.36
15405;BME280;7801;48.124;11.590;2022-10-16T06:02:16;95564.56;;;13.83;97.93
15405;BME280;7801;48.124;11.590;2022-10-16T06:04:44;95571.50;;;13.93;97.87
15405;BME280;7801;48.124;11.590;2022-10-16T06:07:10;95574.38;;;14.05;97.03
15405;BME280;7801;48.124;11.590;2022-10-16T06:09:36;95575.44;;;13.95;97.13
15405;BME280;7801;48.124;11.590;2022-10-16T06:12:04;95567.75;;;13.94;97.61
15405;BME280;7801;48.124;11.590;2022-10-16T06:14:30;95568.56;;;14.03;97.27
15405;BME280;7801;48.124;11.590;2022-10-16T06:16:57;95573.25;;;13.97;97.54
15405;BME280;7801;48.124;11.590;2022-10-16T06:19:22;95578.81;;;14.09;97.04
15405;BME280;7801;48.124;11.590;2022-10-16T06:21:49;95586.50;;;14.11;96.98
15405;BME280;7801;48.124;11.590;2022-10-16T06:24:16;95579.25;;;14.03;97.28
15405;BME280;7801;48.124;11.590;2022-10-16T06:26:41;95576.22;;;13.96;97.87
15405;BME280;7801;48.124;11.590;2022-10-16T06:29:08;95571.84;;;14.00;97.96
15405;BME280;7801;48.124;11.590;2022-10-16T06:31:36;95575.97;;;14.06;97.70
15405;BME280;7801;48.124;11.590;2022-10-16T06:34:02;95584.75;;;14.06;97.76
15405;BME280;7801;48.124;11.590;2022-10-16T06:36:31;95595.44;;;14.06;97.46
15405;BME280;7801;48.124;11.590;2022-10-16T06:38:56;95596.69;;;14.09;97.42
15405;BME280;7801;48.124;11.590;2022-10-16T06:41:23;95599.62;;;13.99;97.92
15405;BME280;7801;48.124;11.590;2022-10-16T06:43:49;95607.53;;;14.13;97.56
15405;BME280;7801;48.124;11.590;2022-10-16T06:46:17;95608.59;;;14.03;98.03
15405;BME280;7801;48.124;11.590;2022-10-16T06:48:44;95606.56;;;14.08;98.30
15405;BME280;7801;48.124;11.590;2022-10-16T06:51:17;95616.78;;;14.15;97.77
15405;BME280;7801;48.124;11.590;2022-10-16T06:53:46;95617.72;;;14.10;97.67
15405;BME280;7801;48.124;11.590;2022-10-16T06:56:19;95617.44;;;14.12;97.98
15405;BME280;7801;48.124;11.590;2022-10-16T06:58:45;95618.03;;;14.09;98.47
15405;BME280;7801;48.124;11.590;2022-10-16T07:01:12;95624.66;;;14.12;98.36
15405;BME280;7801;48.124;11.590;2022-10-16T07:03:44;95624.66;;;14.20;97.69
15405;BME280;7801;48.124;11.590;2022-10-16T07:06:33;95627.63;;;14.19;97.94
15405;BME280;7801;48.124;11.590;2022-10-16T07:09:03;95631.88;;;14.20;98.06
15405;BME280;7801;48.124;11.590;2022-10-16T07:11:36;95636.59;;;14.23;97.94
15405;BME280;7801;48.124;11.590;2022-10-16T07:14:03;95641.03;;;14.27;97.87
15405;BME280;7801;48.124;11.590;2022-10-16T07:16:30;95642.78;;;14.32;97.27
15405;BME280;7801;48.124;11.590;2022-10-16T07:18:59;95642.63;;;14.37;96.99
15405;BME280;7801;48.124;11.590;2022-10-16T07:21:27;95650.00;;;14.40;96.93
15405;BME280;7801;48.124;11.590;2022-10-16T07:23:58;95642.47;;;14.33;97.49
15405;BME280;7801;48.124;11.590;2022-10-16T07:26:36;95644.50;;;14.36;97.55
15405;BME280;7801;48.124;11.590;2022-10-16T07:29:17;95644.50;;;14.36;97.80
15405;BME280;7801;48.124;11.590;2022-10-16T07:31:43;95652.50;;;14.36;98.07
15405;BME280;7801;48.124;11.590;2022-10-16T07:34:11;95649.03;;;14.36;98.41
15405;BME280;7801;48.124;11.590;2022-10-16T07:36:37;95656.34;;;14.44;98.27
15405;BME280;7801;48.124;11.590;2022-10-16T07:39:04;95659.50;;;14.46;98.31
15405;BME280;7801;48.124;11.590;2022-10-16T07:41:30;95650.25;;;14.52;98.11
15405;BME280;7801;48.124;11.590;2022-10-16T07:43:58;95670.66;;;14.57;97.78
15405;BME280;7801;48.124;11.590;2022-10-16T07:46:28;95676.16;;;14.60;97.62
15405;BME280;7801;48.124;11.590;2022-10-16T07:48:59;95666.44;;;14.64;97.52
15405;BME280;7801;48.124;11.590;2022-10-16T07:51:26;95669.91;;;14.65;97.42
15405;BME280;7801;48.124;11.590;2022-10-16T07:53:54;95675.75;;;14.75;97.08
15405;BME280;7801;48.124;11.590;2022-10-16T07:56:21;95680.16;;;14.80;96.80
15405;BME280;7801;48.124;11.590;2022-10-16T07:58:46;95691.78;;;14.84;96.45
15405;BME280;7801;48.124;11.590;2022-10-16T08:01:17;95687.87;;;14.90;96.04
15405;BME280;7801;48.124;11.590;2022-10-16T08:03:48;95684.59;;;14.93;95.85
15405;BME280;7801;48.124;11.590;2022-10-16T08:06:14;95689.94;;;15.02;95.27
15405;BME280;7801;48.124;11.590;2022-10-16T08:08:41;95683.03;;;15.09;94.80
15405;BME280;7801;48.124;11.590;2022-10-16T08:11:10;95688.72;;;15.17;94.58
15405;BME280;7801;48.124;11.590;2022-10-16T08:13:42;95690.28;;;15.26;93.93
15405;BME280;7801;48.124;11.590;2022-10-16T08:16:09;95693.47;;;15.37;93.29
15405;BME280;7801;48.124;11.590;2022-10-16T08:18:37;95687.47;;;15.40;93.33
15405;BME280;7801;48.124;11.590;2022-10-16T08:21:06;95688.41;;;15.44;93.51
15405;BME280;7801;48.124;11.590;2022-10-16T08:23:34;95684.63;;;15.45;93.49
15405;BME280;7801;48.124;11.590;2022-10-16T08:26:05;95687.63;;;15.52;92.59
15405;BME280;7801;48.124;11.590;2022-10-16T08:28:31;95694.44;;;15.58;92.23
15405;BME280;7801;48.124;11.590;2022-10-16T08:31:12;95704.00;;;15.68;91.70
15405;BME280;7801;48.124;11.590;2022-10-16T08:33:39;95713.28;;;15.70;91.77
15405;BME280;7801;48.124;11.590;2022-10-16T08:36:06;95702.91;;;15.77;91.08
15405;BME280;7801;48.124;11.590;2022-10-16T08:38:32;95704.16;;;15.80;90.93
15405;BME280;7801;48.124;11.590;2022-10-16T08:41:22;95706.66;;;15.94;89.75
15405;BME280;7801;48.124;11.590;2022-10-16T08:50:11;95705.22;;;16.13;89.31
15405;BME280;7801;48.124;11.590;2022-10-16T08:52:52;95706.28;;;16.21;89.03
15405;BME280;7801;48.124;11.590;2022-10-16T08:57:58;95716.31;;;16.41;86.83
15405;BME280;7801;48.124;11.590;2022-10-16T09:00:29;95718.00;;;16.55;86.24
15405;BME280;7801;48.124;11.590;2022-10-16T09:12:23;95736.38;;;16.73;85.50
15405;BME280;7801;48.124;11.590;2022-10-16T09:19:16;95736.69;;;16.80;85.00
15405;BME280;7801;48.124;11.590;2022-10-16T09:21:30;95739.47;;;16.84;84.84
15405;BME280;7801;48.124;11.590;2022-10-16T09:24:17;95732.34;;;16.97;84.34
15405;BME280;7801;48.124;11.590;2022-10-16T09:27:00;95734.16;;;17.05;84.42
15405;BME280;7801;48.124;11.590;2022-10-16T09:29:25;95726.09;;;17.13;84.29
15405;BME280;7801;48.124;11.590;2022-10-16T09:31:52;95738.84;;;17.16;84.19
15405;BME280;7801;48.124;11.590;2022-10-16T09:34:33;95730.88;;;17.29;83.29
15405;BME280;7801;48.124;11.590;2022-10-16T09:37:03;95733.37;;;17.34;82.59
15405;BME280;7801;48.124;11.590;2022-10-16T09:39:47;95740.91;;;17.40;81.63
15405;BME280;7801;48.124;11.590;2022-10-16T09:42:34;95742.28;;;17.46;81.13
15405;BME280;7801;48.124;11.590;2022-10-16T09:45:00;95735.00;;;17.47;81.47
15405;BME280;7801;48.124;11.590;2022-10-16T09:47:28;95743.94;;;17.60;80.46
15405;BME280;7801;48.124;11.590;2022-10-16T09:50:00;95733.34;;;17.63;80.74
15405;BME280;7801;48.124;11.590;2022-10-16T09:52:32;95745.44;;;17.69;81.17
15405;BME280;7801;48.124;11.590;2022-10-16T09:55:14;95746.22;;;17.70;81.58
15405;BME280;7801;48.124;11.590;2022-10-16T09:57:55;95744.56;;;17.65;82.06
15405;BME280;7801;48.124;11.590;2022-10-16T10:00:23;95750.34;;;17.67;81.68
15405;BME280;7801;48.124;11.590;2022-10-16T10:02:51;95759.78;;;17.73;81.39
15405;BME280;7801;48.124;11.590;2022-10-16T10:05:27;95747.75;;;17.79;79.63
15405;BME280;7801;48.124;11.590;2022-10-16T10:07:57;95755.34;;;17.77;80.02
15405;BME280;7801;48.124;11.590;2022-10-16T10:10:33;95760.09;;;17.93;78.63
15405;BME280;7801;48.124;11.590;2022-10-16T10:13:01;95758.13;;;18.02;76.07
15405;BME280;7801;48.124;11.590;2022-10-16T10:15:33;95757.16;;;18.06;75.62
15405;BME280;7801;48.124;11.590;2022-10-16T10:18:00;95758.31;;;18.17;74.57
15405;BME280;7801;48.124;11.590;2022-10-16T10:20:35;95748.22;;;18.14;74.80
15405;BME280;7801;48.124;11.590;2022-10-16T10:23:37;95748.34;;;18.18;74.10
15405;BME280;7801;48.124;11.590;2022-10-16T10:26:22;95742.84;;;18.14;74.22
15405;BME280;7801;48.124;11.590;2022-10-16T10:32:03;95758.56;;;18.25;72.83
15405;BME280;7801;48.124;11.590;2022-10-16T10:44:16;95748.16;;;18.35;71.35
15405;BME280;7801;48.124;11.590;2022-10-16T10:47:29;95755.16;;;18.48;70.36
15405;BME280;7801;48.124;11.590;2022-10-16T10:50:35;95751.72;;;18.60;68.81
15405;BME280;7801;48.124;11.590;2022-10-16T10:56:35;95753.63;;;18.60;69.18
15405;BME280;7801;48.124;11.590;2022-10-16T11:07:39;95753.22;;;18.82;68.92
15405;BME280;7801;48.124;11.590;2022-10-16T11:10:58;95753.53;;;18.93;67.14
15405;BME280;7801;48.124;11.590;2022-10-16T11:13:32;95751.44;;;18.98;68.53
15405;BME280;7801;48.124;11.590;2022-10-16T11:16:15;95748.63;;;18.95;67.80
15405;BME280;7801;48.124;11.590;2022-10-16T11:19:03;95743.59;;;19.05;66.66
15405;BME280;7801;48.124;11.590;2022-10-16T11:21:47;95745.03;;;19.15;65.88
15405;BME280;7801;48.124;11.590;2022-10-16T11:24:32;95751.09;;;19.12;67.22
15405;BME280;7801;48.124;11.590;2022-10-16T11:27:02;95748.50;;;19.15;67.34
15405;BME280;7801;48.124;11.590;2022-10-16T11:29:46;95747.06;;;19.18;66.77
15405;BME280;7801;48.124;11.590;2022-10-16T11:32:38;95746.59;;;19.28;65.58
15405;BME280;7801;48.124;11.590;2022-10-16T11:35:19;95748.97;;;19.30;65.33
15405;BME280;7801;48.124;11.590;2022-10-16T11:37:50;95745.16;;;19.31;65.61
15405;BME280;7801;48.124;11.590;2022-10-16T11:40:25;95739.00;;;19.30;65.91
15405;BME280;7801;48.124;11.590;2022-10-16T11:43:12;95745.34;;;19.38;65.66
15405;BME280;7801;48.124;11.590;2022-10-16T11:45:58;95738.53;;;19.52;60.30
15405;BME280;7801;48.124;11.590;2022-10-16T11:48:51;95748.25;;;19.57;60.12
15405;BME280;7801;48.124;11.590;2022-10-16T11:51:38;95731.44;;;19.60;63.23
15405;BME280;7801;48.124;11.590;2022-10-16T11:54:22;95735.91;;;19.56;61.02
15405;BME280;7801;48.124;11.590;2022-10-16T11:56:56;95746.69;;;19.56;59.08
15405;BME280;7801;48.124;11.590;2022-10-16T11:59:49;95737.25;;;19.62;57.27
15405;BME280;7801;48.124;11.590;2022-10-16T12:08:08;95739.94;;;19.74;57.73
15405;BME280;7801;48.124;11.590;2022-10-16T12:10:44;95740.34;;;19.76;57.46
15405;BME280;7801;48.124;11.590;2022-10-16T12:13:40;95737.66;;;19.76;58.17
15405;BME280;7801;48.124;11.590;2022-10-16T12:16:58;95734.00;;;19.69;59.79
15405;BME280;7801;48.124;11.590;2022-10-16T12:19:26;95743.31;;;19.71;57.41
15405;BME280;7801;48.124;11.590;2022-10-16T12:21:56;95743.19;;;19.68;58.43
15405;BME280;7801;48.124;11.590;2022-10-16T12:24:41;95734.56;;;19.62;59.28
15405;BME280;7801;48.124;11.590;2022-10-16T12:27:42;95739.72;;;19.67;58.11
15405;BME280;7801;48.124;11.590;2022-10-16T12:30:20;95740.34;;;19.76;57.46
15405;BME280;7801;48.124;11.590;2022-10-16T12:32:57;95732.44;;;19.96;55.53
15405;BME280;7801;48.124;11.590;2022-10-16T12:35:29;95732.00;;;19.94;56.67
15405;BME280;7801;48.124;11.590;2022-10-16T12:38:08;95732.94;;;20.13;55.22
15405;BME280;7801;48.124;11.590;2022-10-16T12:40:41;95742.53;;;20.27;55.03
15405;BME280;7801;48.124;11.590;2022-10-16T12:43:12;95731.44;;;20.44;55.08
15405;BME280;7801;48.124;11.590;2022-10-16T12:45:39;95730.97;;;20.54;54.20
15405;BME280;7801;48.124;11.590;2022-10-16T12:48:19;95734.88;;;20.56;54.76
15405;BME280;7801;48.124;11.590;2022-10-16T12:50:48;95735.66;;;20.57;55.42
15405;BME280;7801;48.124;11.590;2022-10-16T12:53:25;95728.06;;;20.47;55.09
15405;BME280;7801;48.124;11.590;2022-10-16T12:56:22;95730.28;;;20.29;56.19
15405;BME280;7801;48.124;11.590;2022-10-16T13:11:14;95731.06;;;20.30;56.18
15405;BME280;7801;48.124;11.590;2022-10-16T13:25:42;95725.44;;;20.07;57.62
15405;BME280;7801;48.124;11.590;2022-10-16T13:28:12;95725.56;;;20.26;55.98
15405;BME280;7801;48.124;11.590;2022-10-16T13:31:05;95735.53;;;20.10;57.20
15405;BME280;7801;48.124;11.590;2022-10-16T13:33:51;95736.66;;;20.09;57.20
15405;BME280;7801;48.124;11.590;2022-10-16T13:36:26;95731.84;;;20.02;58.57
15405;BME280;7801;48.124;11.590;2022-10-16T13:39:14;95735.66;;;20.01;57.87
15405;BME280;7801;48.124;11.590;2022-10-16T13:41:57;95734.78;;;19.97;57.49
15405;BME280;7801;48.124;11.590;2022-10-16T13:44:24;95734.59;;;19.90;58.91
15405;BME280;7801;48.124;11.590;2022-10-16T13:47:00;95737.62;;;19.88;59.21
15405;BME280;7801;48.124;11.590;2022-10-16T13:49:29;95740.56;;;19.83;58.75
15405;BME280;7801;48.124;11.590;2022-10-16T13:51:58;95728.62;;;19.97;57.25
15405;BME280;7801;48.124;11.590;2022-10-16T13:54:30;95738.41;;;20.17;56.60
15405;BME280;7801;48.124;11.590;2022-10-16T13:57:05;95738.22;;;20.38;55.46
15405;BME280;7801;48.124;11.590;2022-10-16T13:59:36;95744.38;;;20.38;55.87
15405;BME280;7801;48.124;11.590;2022-10-16T14:02:25;95738.50;;;20.20;56.60
15405;BME280;7801;48.124;11.590;2022-10-16T14:04:53;95744.62;;;20.33;56.09
15405;BME280;7801;48.124;11.590;2022-10-16T14:07:29;95750.41;;;20.19;56.95
15405;BME280;7801;48.124;11.590;2022-10-16T14:10:04;95746.47;;;20.17;57.20
15405;BME280;7801;48.124;11.590;2022-10-16T14:12:34;95747.69;;;20.04;58.29
15405;BME280;7801;48.124;11.590;2022-10-16T14:15:01;95748.31;;;20.13;56.82
15405;BME280;7801;48.124;11.590;2022-10-16T14:17:34;95750.34;;;20.16;57.66
15405;BME280;7801;48.124;11.590;2022-10-16T14:20:04;95755.22;;;20.54;55.42
15405;BME280;7801;48.124;11.590;2022-10-16T14:22:39;95751.16;;;20.76;53.92
15405;BME280;7801;48.124;11.590;2022-10-16T14:25:25;95751.50;;;20.74;53.92
15405;BME280;7801;48.124;11.590;2022-10-16T14:28:04;95755.13;;;20.66;54.74
15405;BME280;7801;48.124;11.590;2022-10-16T14:30:58;95745.47;;;20.49;54.87
15405;BME280;7801;48.124;11.590;2022-10-16T14:33:34;95754.94;;;20.43;55.11
15405;BME280;7801;48.124;11.590;2022-10-16T14:36:12;95755.56;;;20.24;56.58
15405;BME280;7801;48.124;11.590;2022-10-16T14:38:43;95752.16;;;20.12;56.46
15405;BME280;7801;48.124;11.590;2022-10-16T14:41:48;95751.06;;;20.01;57.20
15405;BME280;7801;48.124;11.590;2022-10-16T14:44:26;95756.16;;;19.90;56.99
15405;BME280;7801;48.124;11.590;2022-10-16T14:46:53;95753.41;;;19.74;57.95
15405;BME280;7801;48.124;11.590;2022-10-16T14:49:24;95762.38;;;19.66;58.56
15405;BME280;7801;48.124;11.590;2022-10-16T14:51:49;95753.19;;;19.55;59.50
15405;BME280;7801;48.124;11.590;2022-10-16T14:54:21;95755.81;;;19.51;59.87
15405;BME280;7801;48.124;11.590;2022-10-16T14:56:56;95755.19;;;19.70;57.94
15405;BME280;7801;48.124;11.590;2022-10-16T14:59:39;95756.63;;;19.80;59.22
15405;BME280;7801;48.124;11.590;2022-10-16T15:02:43;95756.50;;;19.88;58.90